createdAt,value
2023-03-27T00:01:16.736Z,5.55
2023-03-27T00:03:43.418Z,5.57
2023-03-27T00:06:16.395Z,5.56
2023-03-27T00:08:48.365Z,5.53
2023-03-27T00:11:15.552Z,5.45
2023-03-27T00:13:49.958Z,5.20
2023-03-27T00:16:22.882Z,5.20
2023-03-27T00:18:49.516Z,5.29
2023-03-27T00:21:16.299Z,5.42
2023-03-27T00:23:42.698Z,5.27
2023-03-27T00:26:09.821Z,5.26
2023-03-27T00:28:36.231Z,5.30
2023-03-27T00:31:02.882Z,5.34
2023-03-27T00:33:29.495Z,5.29
2023-03-27T00:35:55.924Z,5.66
2023-03-27T00:38:22.779Z,5.21
2023-03-27T00:40:50.738Z,4.97
2023-03-27T00:43:30.037Z,4.82
2023-03-27T00:46:01.206Z,4.92
2023-03-27T00:48:28.799Z,4.73
2023-03-27T00:50:57.237Z,4.70
2023-03-27T00:53:29.148Z,4.85
2023-03-27T00:56:01.055Z,4.66
2023-03-27T00:58:42.615Z,4.55
2023-03-27T01:01:12.005Z,4.61
2023-03-27T01:03:41.977Z,4.54
2023-03-27T01:06:10.996Z,4.50
2023-03-27T01:08:38.237Z,4.50
2023-03-27T01:11:30.164Z,4.32
2023-03-27T01:14:12.002Z,4.40
2023-03-27T01:16:43.723Z,4.52
2023-03-27T01:19:35.331Z,4.42
2023-03-27T01:22:21.848Z,4.47
2023-03-27T01:25:22.445Z,4.60
2023-03-27T01:28:23.137Z,4.54
2023-03-27T01:31:03.423Z,4.29
2023-03-27T01:33:54.784Z,4.34
2023-03-27T01:37:06.452Z,4.33
2023-03-27T01:39:32.824Z,4.27
2023-03-27T01:42:11.021Z,4.36
2023-03-27T01:44:47.451Z,4.25
2023-03-27T01:47:52.568Z,4.30
2023-03-27T01:50:30.464Z,4.23
2023-03-27T01:53:12.811Z,4.32
2023-03-27T01:55:44.178Z,4.35
2023-03-27T01:58:22.416Z,4.04
2023-03-27T02:00:53.528Z,4.11
2023-03-27T02:03:36.843Z,4.25
2023-03-27T02:06:08.521Z,4.13
2023-03-27T02:08:49.066Z,4.27
2023-03-27T02:11:18.733Z,4.02
2023-03-27T02:13:51.756Z,4.15
2023-03-27T02:16:23.436Z,3.96
2023-03-27T02:18:57.996Z,3.94
2023-03-27T02:21:24.716Z,3.89
2023-03-27T02:23:52.899Z,4.10
2023-03-27T02:26:19.391Z,4.09
2023-03-27T02:29:22.971Z,4.14
2023-03-27T02:32:39.465Z,3.90
2023-03-27T02:35:35.561Z,4.06
2023-03-27T02:38:43.892Z,4.17
2023-03-27T02:41:23.336Z,3.89
2023-03-27T02:44:47.272Z,3.94
2023-03-27T02:47:21.613Z,3.94
2023-03-27T02:49:57.443Z,4.05
2023-03-27T02:52:32.425Z,4.06
2023-03-27T02:55:06.411Z,3.90
2023-03-27T02:57:39.935Z,4.02
2023-03-27T03:00:27.969Z,4.17
2023-03-27T03:03:18.130Z,3.95
2023-03-27T03:05:55.818Z,4.05
2023-03-27T03:08:22.496Z,4.01
2023-03-27T03:10:49.154Z,4.01
2023-03-27T03:13:16.378Z,4.07
2023-03-27T03:15:45.836Z,4.11
2023-03-27T03:18:12.959Z,4.07
2023-03-27T03:20:39.705Z,3.98
2023-03-27T03:23:06.744Z,4.01
2023-03-27T03:25:33.506Z,4.02
2023-03-27T03:27:59.833Z,3.97
2023-03-27T03:30:28.998Z,3.98
2023-03-27T03:33:01.241Z,3.91
2023-03-27T03:35:28.249Z,3.94
2023-03-27T03:37:58.760Z,3.90
2023-03-27T03:40:26.232Z,3.79
2023-03-27T03:42:56.531Z,3.78
2023-03-27T03:45:26.651Z,3.58
2023-03-27T03:47:53.546Z,3.83
2023-03-27T03:50:20.068Z,3.80
2023-03-27T03:52:47.158Z,3.57
2023-03-27T03:55:15.712Z,3.77
2023-03-27T03:57:46.959Z,3.65
2023-03-27T04:00:19.000Z,3.67
2023-03-27T04:02:51.268Z,3.49
2023-03-27T04:05:17.963Z,3.79
2023-03-27T04:07:45.509Z,3.83
2023-03-27T04:10:39.328Z,3.49
2023-03-27T04:13:12.725Z,3.56
2023-03-27T04:15:49.262Z,3.50
2023-03-27T04:18:33.056Z,3.55
2023-03-27T04:21:02.919Z,3.46
2023-03-27T04:23:32.291Z,3.63
2023-03-27T04:26:00.979Z,3.39
2023-03-27T04:28:42.015Z,3.53
2023-03-27T04:31:30.165Z,3.41
2023-03-27T04:34:20.361Z,3.40
2023-03-27T04:37:05.320Z,3.38
2023-03-27T04:39:39.528Z,3.39
2023-03-27T04:42:06.307Z,3.38
2023-03-27T04:44:34.796Z,3.48
2023-03-27T04:47:02.208Z,3.35
2023-03-27T04:49:29.483Z,3.31
2023-03-27T04:52:00.786Z,3.54
2023-03-27T04:54:31.637Z,3.41
2023-03-27T04:56:59.013Z,3.36
2023-03-27T04:59:25.416Z,3.36
2023-03-27T05:02:14.407Z,3.48
2023-03-27T05:04:51.368Z,3.47
2023-03-27T05:07:19.909Z,3.41
2023-03-27T05:09:46.928Z,3.45
2023-03-27T05:12:13.408Z,3.37
2023-03-27T05:14:49.111Z,3.43
2023-03-27T05:17:32.416Z,3.40
2023-03-27T05:19:58.917Z,3.33
2023-03-27T05:22:25.246Z,3.21
2023-03-27T05:25:01.499Z,3.33
2023-03-27T05:27:28.177Z,3.33
2023-03-27T05:29:57.466Z,3.31
2023-03-27T05:32:23.951Z,3.35
2023-03-27T05:35:06.130Z,3.14
2023-03-27T05:37:38.435Z,3.19
2023-03-27T05:40:24.587Z,3.15
2023-03-27T05:42:51.777Z,3.20
2023-03-27T05:45:19.116Z,3.20
2023-03-27T05:47:51.772Z,3.13
2023-03-27T05:50:21.620Z,3.09
2023-03-27T05:52:54.812Z,3.05
2023-03-27T05:55:27.704Z,3.15
2023-03-27T05:57:55.483Z,3.10
2023-03-27T06:00:25.644Z,3.18
2023-03-27T06:02:56.140Z,3.15
2023-03-27T06:05:33.863Z,3.26
2023-03-27T06:08:02.051Z,3.01
2023-03-27T06:10:30.592Z,3.20
2023-03-27T06:13:14.542Z,3.04
2023-03-27T06:15:53.629Z,3.21
2023-03-27T06:18:38.601Z,3.33
2023-03-27T06:21:05.556Z,3.41
2023-03-27T06:23:32.344Z,3.51
2023-03-27T06:25:59.393Z,3.52
2023-03-27T06:28:28.445Z,3.63
2023-03-27T06:30:54.819Z,3.77
2023-03-27T06:33:35.086Z,3.76
2023-03-27T06:36:06.080Z,3.86
2023-03-27T06:38:37.150Z,3.84
2023-03-27T06:41:04.753Z,3.95
2023-03-27T06:43:49.467Z,3.87
2023-03-27T06:46:42.792Z,4.09
2023-03-27T06:49:18.169Z,4.22
2023-03-27T06:51:44.935Z,4.21
2023-03-27T06:54:13.407Z,4.25
2023-03-27T06:56:44.368Z,4.20
2023-03-27T06:59:16.573Z,4.32
2023-03-27T07:01:46.101Z,4.28
2023-03-27T07:04:27.410Z,4.50
2023-03-27T07:07:00.476Z,4.41
2023-03-27T07:09:31.754Z,4.52
2023-03-27T07:12:02.735Z,4.64
2023-03-27T07:14:29.610Z,4.83
2023-03-27T07:16:56.948Z,4.68
2023-03-27T07:19:27.122Z,4.84
2023-03-27T07:22:02.410Z,4.88
2023-03-27T07:24:31.998Z,4.99
2023-03-27T07:26:58.523Z,5.10
2023-03-27T07:29:31.725Z,5.46
2023-03-27T07:32:01.532Z,5.18
2023-03-27T07:34:38.400Z,5.15
2023-03-27T07:37:42.705Z,5.48
2023-03-27T07:40:38.791Z,5.48
2023-03-27T07:43:42.160Z,5.44
2023-03-27T07:46:09.468Z,5.20
2023-03-27T07:48:36.113Z,5.43
2023-03-27T07:51:13.335Z,5.71
2023-03-27T07:53:41.402Z,5.56
2023-03-27T07:56:14.592Z,5.59
2023-03-27T07:58:43.583Z,5.57
2023-03-27T08:01:11.471Z,5.72
2023-03-27T08:03:39.320Z,5.86
2023-03-27T08:06:07.455Z,5.87
2023-03-27T08:08:34.555Z,6.02
2023-03-27T08:11:02.799Z,6.10
2023-03-27T08:13:34.006Z,6.30
2023-03-27T08:16:12.288Z,6.21
2023-03-27T08:18:39.086Z,6.35
2023-03-27T08:21:08.528Z,6.50
2023-03-27T08:23:37.484Z,6.40
2023-03-27T08:26:24.941Z,6.55
2023-03-27T08:28:56.335Z,6.61
2023-03-27T08:31:27.732Z,6.85
2023-03-27T08:33:57.915Z,6.82
2023-03-27T08:36:27.644Z,6.84
2023-03-27T08:38:55.265Z,6.88
2023-03-27T08:41:42.310Z,6.79
2023-03-27T08:44:31.621Z,6.28
2023-03-27T08:47:06.312Z,6.36
2023-03-27T08:49:46.293Z,6.53
2023-03-27T08:52:31.948Z,6.72
2023-03-27T08:55:18.585Z,6.77
2023-03-27T08:57:59.611Z,7.13
2023-03-27T09:00:33.840Z,7.18
2023-03-27T09:03:29.828Z,7.18
2023-03-27T09:06:03.408Z,6.98
2023-03-27T09:08:50.290Z,7.09
2023-03-27T09:11:39.838Z,7.14
2023-03-27T09:14:20.288Z,7.42
2023-03-27T09:16:50.404Z,7.69
2023-03-27T09:19:48.779Z,7.71
2023-03-27T09:22:27.412Z,7.53
2023-03-27T09:25:10.864Z,7.43
2023-03-27T09:27:57.424Z,7.57
2023-03-27T09:30:33.472Z,7.46
2023-03-27T09:33:11.756Z,7.49
2023-03-27T09:35:42.492Z,7.65
2023-03-27T09:38:21.574Z,7.55
2023-03-27T09:41:00.549Z,8.05
2023-03-27T09:43:46.526Z,8.42
2023-03-27T09:46:19.263Z,8.76
2023-03-27T09:49:00.989Z,9.00
2023-03-27T09:51:42.632Z,8.97
2023-03-27T09:54:22.211Z,9.20
2023-03-27T09:57:10.931Z,9.56
2023-03-27T09:59:40.398Z,9.24
2023-03-27T10:02:24.347Z,9.28
2023-03-27T10:05:16.843Z,9.08
2023-03-27T10:07:46.590Z,9.44
2023-03-27T10:10:41.919Z,9.95
2023-03-27T10:13:45.689Z,9.93
2023-03-27T10:16:17.823Z,9.76
2023-03-27T10:18:58.159Z,9.88
2023-03-27T10:21:30.955Z,9.76
2023-03-27T10:24:04.144Z,9.25
2023-03-27T10:26:47.781Z,8.60
2023-03-27T10:29:28.696Z,8.19
2023-03-27T10:31:57.765Z,7.91
2023-03-27T10:34:50.710Z,7.72
2023-03-27T10:37:36.068Z,7.69
2023-03-27T10:40:35.920Z,7.60
2023-03-27T10:43:28.326Z,7.62
2023-03-27T10:46:00.415Z,7.24
2023-03-27T10:48:44.801Z,6.97
2023-03-27T10:51:43.060Z,6.73
2023-03-27T10:54:38.436Z,6.43
2023-03-27T10:57:17.088Z,6.38
2023-03-27T11:00:01.275Z,7.29
2023-03-27T11:02:50.253Z,8.05
2023-03-27T11:05:24.467Z,8.95
2023-03-27T11:07:57.108Z,9.26
2023-03-27T11:10:31.429Z,9.84
2023-03-27T11:13:04.361Z,10.55
2023-03-27T11:15:42.371Z,10.75
2023-03-27T11:18:34.321Z,11.38
2023-03-27T11:21:12.561Z,11.38
2023-03-27T11:23:54.703Z,11.70
2023-03-27T11:26:53.715Z,11.16
2023-03-27T11:29:30.007Z,10.51
2023-03-27T11:32:05.980Z,10.02
2023-03-27T11:35:07.294Z,9.32
2023-03-27T11:37:59.589Z,8.98
2023-03-27T11:40:35.161Z,8.63
2023-03-27T11:43:02.769Z,8.41
2023-03-27T11:45:52.925Z,8.44
2023-03-27T11:48:38.642Z,8.10
2023-03-27T11:51:42.357Z,8.16
2023-03-27T11:54:28.974Z,8.19
2023-03-27T11:57:05.851Z,8.65
2023-03-27T12:00:17.618Z,9.70
2023-03-27T12:03:08.593Z,10.26
2023-03-27T12:05:59.188Z,11.01
2023-03-27T12:09:06.531Z,11.24
2023-03-27T12:11:58.033Z,11.57
2023-03-27T12:15:03.983Z,12.15
2023-03-27T12:17:54.043Z,12.10
2023-03-27T12:20:28.716Z,11.43
2023-03-27T12:23:49.600Z,10.10
2023-03-27T12:26:53.027Z,9.23
2023-03-27T12:30:04.969Z,9.50
2023-03-27T12:33:00.344Z,10.08
2023-03-27T12:35:32.038Z,11.21
2023-03-27T12:38:03.999Z,12.06
2023-03-27T12:40:47.567Z,12.45
2023-03-27T12:43:21.132Z,12.14
2023-03-27T12:46:07.009Z,12.62
2023-03-27T12:48:34.695Z,12.96
2023-03-27T12:51:01.315Z,13.16
2023-03-27T12:53:30.783Z,13.41
2023-03-27T12:56:19.358Z,13.65
2023-03-27T12:58:52.206Z,12.67
2023-03-27T13:01:52.223Z,11.50
2023-03-27T13:04:58.470Z,10.56
2023-03-27T13:07:53.481Z,10.03
2023-03-27T13:11:11.737Z,9.30
2023-03-27T13:14:01.611Z,8.85
2023-03-27T13:16:41.827Z,9.00
2023-03-27T13:19:53.763Z,10.03
2023-03-27T13:22:40.339Z,10.67
2023-03-27T13:25:12.426Z,11.42
2023-03-27T13:28:10.602Z,11.47
2023-03-27T13:30:52.204Z,11.65
2023-03-27T13:34:10.685Z,12.28
2023-03-27T13:36:47.449Z,12.41
2023-03-27T13:39:24.690Z,12.25
2023-03-27T13:42:21.143Z,12.34
2023-03-27T13:45:20.283Z,12.37
2023-03-27T13:48:26.956Z,12.06
2023-03-27T13:51:19.463Z,12.10
2023-03-27T13:54:02.623Z,11.52
2023-03-27T13:56:55.576Z,11.09
2023-03-27T14:00:01.750Z,10.97
2023-03-27T14:03:17.796Z,10.37
2023-03-27T14:06:04.488Z,9.25
2023-03-27T14:08:55.353Z,9.15
2023-03-27T14:11:56.878Z,8.30
2023-03-27T14:15:09.954Z,8.07
2023-03-27T14:17:55.498Z,7.69
2023-03-27T14:20:29.829Z,7.73
2023-03-27T14:23:17.876Z,7.69
2023-03-27T14:26:11.999Z,7.49
2023-03-27T14:28:51.527Z,7.98
2023-03-27T14:31:35.134Z,7.64
2023-03-27T14:34:24.788Z,7.55
2023-03-27T14:37:28.756Z,7.15
2023-03-27T14:39:59.580Z,7.03
2023-03-27T14:42:36.503Z,7.12
2023-03-27T14:45:17.973Z,7.24
2023-03-27T14:47:49.498Z,7.27
2023-03-27T14:50:17.255Z,7.20
2023-03-27T14:52:45.108Z,7.33
2023-03-27T14:55:36.265Z,7.28
2023-03-27T14:58:24.827Z,7.26
2023-03-27T15:01:00.261Z,7.44
2023-03-27T15:03:30.777Z,7.37
2023-03-27T15:06:13.377Z,7.40
2023-03-27T15:08:50.229Z,7.43
2023-03-27T15:11:40.891Z,7.42
2023-03-27T15:14:18.728Z,7.43
2023-03-27T15:17:14.361Z,7.46
2023-03-27T15:19:48.778Z,7.36
2023-03-27T15:22:27.561Z,7.40
2023-03-27T15:25:00.811Z,7.33
2023-03-27T15:27:30.707Z,7.29
2023-03-27T15:30:07.596Z,7.34
2023-03-27T15:32:42.437Z,7.30
2023-03-27T15:35:15.635Z,6.97
2023-03-27T15:37:42.741Z,6.85
2023-03-27T15:40:23.826Z,6.90
2023-03-27T15:42:50.278Z,6.79
2023-03-27T15:45:22.867Z,6.82
2023-03-27T15:48:02.764Z,6.82
2023-03-27T15:50:29.356Z,6.68
2023-03-27T15:52:57.998Z,6.61
2023-03-27T15:55:47.216Z,6.66
2023-03-27T15:58:23.147Z,6.53
2023-03-27T16:00:52.240Z,6.53
2023-03-27T16:03:24.715Z,6.51
2023-03-27T16:05:57.300Z,6.42
2023-03-27T16:08:37.522Z,6.52
2023-03-27T16:11:06.237Z,6.66
2023-03-27T16:13:55.887Z,6.68
2023-03-27T16:16:25.942Z,6.62
2023-03-27T16:18:52.742Z,6.63
2023-03-27T16:21:24.988Z,6.68
2023-03-27T16:23:51.392Z,6.67
2023-03-27T16:26:28.054Z,6.57
2023-03-27T16:28:57.531Z,6.55
2023-03-27T16:31:24.073Z,6.38
2023-03-27T16:33:50.968Z,6.43
2023-03-27T16:36:27.293Z,6.54
2023-03-27T16:38:53.611Z,6.67
2023-03-27T16:41:20.114Z,6.28
2023-03-27T16:43:46.505Z,6.12
2023-03-27T16:46:23.987Z,5.86
2023-03-27T16:48:51.695Z,5.73
2023-03-27T16:51:22.358Z,5.56
2023-03-27T16:53:48.823Z,5.49
2023-03-27T16:56:15.258Z,5.47
2023-03-27T16:58:42.790Z,5.55
2023-03-27T17:01:09.489Z,5.47
2023-03-27T17:03:38.601Z,5.51
2023-03-27T17:06:07.871Z,5.36
2023-03-27T17:08:34.748Z,5.53
2023-03-27T17:11:07.329Z,5.43
2023-03-27T17:13:34.191Z,5.37
2023-03-27T17:16:00.814Z,5.30
2023-03-27T17:18:27.709Z,5.38
2023-03-27T17:20:54.374Z,5.40
2023-03-27T17:23:21.021Z,5.16
2023-03-27T17:25:47.576Z,5.09
2023-03-27T17:28:13.986Z,5.09
2023-03-27T17:31:04.024Z,5.08
2023-03-27T17:33:31.313Z,5.06
2023-03-27T17:35:57.967Z,4.94
2023-03-27T17:38:24.587Z,4.86
2023-03-27T17:40:51.447Z,4.93
2023-03-27T17:43:18.149Z,4.99
2023-03-27T17:45:44.542Z,4.86
2023-03-27T17:48:11.319Z,4.94
2023-03-27T17:50:39.618Z,4.65
2023-03-27T17:53:06.694Z,4.80
2023-03-27T17:55:33.104Z,4.77
2023-03-27T17:58:08.823Z,4.87
2023-03-27T18:00:37.497Z,4.73
2023-03-27T18:03:04.477Z,4.87
2023-03-27T18:05:34.729Z,4.88
2023-03-27T18:08:01.050Z,4.90
2023-03-27T18:10:27.356Z,4.95
2023-03-27T18:12:53.698Z,4.89
2023-03-27T18:15:20.068Z,4.99
2023-03-27T18:17:46.440Z,4.86
2023-03-27T18:20:13.090Z,4.89
2023-03-27T18:22:40.067Z,4.87
2023-03-27T18:25:11.112Z,5.00
2023-03-27T18:27:40.066Z,4.99
2023-03-27T18:30:13.162Z,4.89
2023-03-27T18:32:41.442Z,4.93
2023-03-27T18:35:10.786Z,4.98
2023-03-27T18:37:37.129Z,5.06
2023-03-27T18:40:08.069Z,4.96
2023-03-27T18:42:36.324Z,4.83
2023-03-27T18:45:04.112Z,4.77
2023-03-27T18:47:30.825Z,4.66
2023-03-27T18:49:57.535Z,4.82
2023-03-27T18:52:24.500Z,4.82
2023-03-27T18:54:50.815Z,4.58
2023-03-27T18:57:20.597Z,4.60
2023-03-27T18:59:48.289Z,4.62
2023-03-27T19:02:15.279Z,4.45
2023-03-27T19:04:41.601Z,4.44
2023-03-27T19:07:08.865Z,4.44
2023-03-27T19:09:41.253Z,4.33
2023-03-27T19:12:09.312Z,4.47
2023-03-27T19:14:54.297Z,4.43
2023-03-27T19:17:53.084Z,4.59
2023-03-27T19:20:46.385Z,4.43
2023-03-27T19:23:21.447Z,4.37
2023-03-27T19:25:51.035Z,4.58
2023-03-27T19:28:17.468Z,4.49
2023-03-27T19:30:46.747Z,4.49
2023-03-27T19:33:13.112Z,4.37
2023-03-27T19:35:39.443Z,4.45
2023-03-27T19:38:05.772Z,4.47
2023-03-27T19:40:32.258Z,4.49
2023-03-27T19:42:58.567Z,4.44
2023-03-27T19:45:26.206Z,4.33
2023-03-27T19:47:52.715Z,4.39
2023-03-27T19:50:19.179Z,4.30
2023-03-27T19:53:05.394Z,4.27
2023-03-27T19:55:34.392Z,4.29
2023-03-27T19:58:00.727Z,4.35
2023-03-27T20:00:27.726Z,4.24
2023-03-27T20:02:54.901Z,4.14
2023-03-27T20:05:22.091Z,4.07
2023-03-27T20:07:48.457Z,3.97
2023-03-27T20:10:15.970Z,3.89
2023-03-27T20:12:42.296Z,4.01
2023-03-27T20:15:12.160Z,4.08
2023-03-27T20:17:42.669Z,4.06
2023-03-27T20:20:12.291Z,3.91
2023-03-27T20:22:50.032Z,3.95
2023-03-27T20:25:21.069Z,4.05
2023-03-27T20:27:48.108Z,4.11
2023-03-27T20:30:14.553Z,3.97
2023-03-27T20:32:41.800Z,3.94
2023-03-27T20:35:20.575Z,4.04
2023-03-27T20:37:50.188Z,4.07
2023-03-27T20:40:20.441Z,4.05
2023-03-27T20:42:46.918Z,4.08
2023-03-27T20:45:19.214Z,4.18
2023-03-27T20:47:48.451Z,4.19
2023-03-27T20:50:16.045Z,4.26
2023-03-27T20:52:44.791Z,4.24
2023-03-27T20:55:17.373Z,4.10
2023-03-27T20:57:49.633Z,4.12
2023-03-27T21:00:16.971Z,4.13
2023-03-27T21:02:43.995Z,4.12
2023-03-27T21:05:10.921Z,4.02
2023-03-27T21:07:38.011Z,4.02
2023-03-27T21:10:06.464Z,3.91
2023-03-27T21:12:32.904Z,3.84
2023-03-27T21:14:59.263Z,3.90
2023-03-27T21:17:25.837Z,3.84
2023-03-27T21:19:52.171Z,3.99
2023-03-27T21:22:18.584Z,3.87
2023-03-27T21:24:45.170Z,3.73
2023-03-27T21:27:12.511Z,3.85
2023-03-27T21:29:38.851Z,3.79
2023-03-27T21:32:05.694Z,3.67
2023-03-27T21:34:32.088Z,3.65
2023-03-27T21:36:58.493Z,3.86
2023-03-27T21:39:24.832Z,3.67
2023-03-27T21:41:51.128Z,3.56
2023-03-27T21:44:17.461Z,3.74
2023-03-27T21:46:43.783Z,3.73
2023-03-27T21:49:10.146Z,3.73
2023-03-27T21:51:36.487Z,3.72
2023-03-27T21:54:02.819Z,3.68
2023-03-27T21:56:29.163Z,3.65
2023-03-27T21:58:57.279Z,3.74
2023-03-27T22:01:24.078Z,3.75
2023-03-27T22:03:50.861Z,3.76
2023-03-27T22:06:17.539Z,3.61
2023-03-27T22:08:44.317Z,3.69
2023-03-27T22:11:12.067Z,3.77
2023-03-27T22:13:39.164Z,3.71
2023-03-27T22:16:16.625Z,3.89
2023-03-27T22:18:44.038Z,3.78
2023-03-27T22:24:05.546Z,3.84
2023-03-27T22:26:35.628Z,3.87
2023-03-27T22:29:01.966Z,3.79
2023-03-27T22:31:29.268Z,3.75
2023-03-27T22:33:55.831Z,3.57
2023-03-27T22:36:22.599Z,3.60
2023-03-27T22:38:49.017Z,3.56
2023-03-27T22:41:15.919Z,3.50
2023-03-27T22:43:42.521Z,3.37
2023-03-27T22:46:12.005Z,3.53
2023-03-27T22:48:38.638Z,3.45
2023-03-27T22:51:05.564Z,3.64
2023-03-27T22:53:32.847Z,3.54
2023-03-27T22:56:00.218Z,3.51
2023-03-27T22:58:27.554Z,3.60
2023-03-27T23:00:55.252Z,3.56
2023-03-27T23:03:22.823Z,3.49
2023-03-27T23:05:51.130Z,3.40
2023-03-27T23:08:19.358Z,3.36
2023-03-27T23:10:46.332Z,3.46
2023-03-27T23:13:13.150Z,3.33
2023-03-27T23:15:39.473Z,3.30
2023-03-27T23:18:05.982Z,3.37
2023-03-27T23:20:32.584Z,3.44
2023-03-27T23:22:58.934Z,3.37
2023-03-27T23:25:25.326Z,3.35
2023-03-27T23:27:51.626Z,3.34
2023-03-27T23:30:18.003Z,3.29
2023-03-27T23:32:44.380Z,3.16
2023-03-27T23:35:12.005Z,3.26
2023-03-27T23:37:38.308Z,3.23
2023-03-27T23:40:05.164Z,3.18
2023-03-27T23:42:31.632Z,3.34
2023-03-27T23:44:57.943Z,3.30
2023-03-27T23:47:24.275Z,3.17
2023-03-27T23:49:50.637Z,3.22
2023-03-27T23:52:16.989Z,3.19
2023-03-27T23:54:43.281Z,3.15
2023-03-27T23:57:09.619Z,3.26
2023-03-27T23:59:38.132Z,3.29
